createdAt,value
2023-01-21T00:00:02.926Z,1013.78
2023-01-21T00:01:03.069Z,1013.79
2023-01-21T00:02:03.811Z,1013.77
2023-01-21T00:03:03.925Z,1013.77
2023-01-21T00:04:03.661Z,1013.81
2023-01-21T00:05:03.705Z,1013.84
2023-01-21T00:06:03.727Z,1013.85
2023-01-21T00:07:03.761Z,1013.92
2023-01-21T00:08:03.110Z,1013.98
2023-01-21T00:09:03.260Z,1013.91
2023-01-21T00:10:03.243Z,1013.98
2023-01-21T00:11:03.251Z,1013.99
2023-01-21T00:12:03.952Z,1014.02
2023-01-21T00:13:03.340Z,1014.07
2023-01-21T00:14:03.905Z,1014.04
2023-01-21T00:15:03.983Z,1014.07
2023-01-21T00:16:03.416Z,1014.06
2023-01-21T00:17:04.255Z,1014.10
2023-01-21T00:18:04.277Z,1014.10
2023-01-21T00:19:03.581Z,1014.10
2023-01-21T00:20:04.022Z,1014.11
2023-01-21T00:21:03.859Z,1014.12
2023-01-21T00:22:04.586Z,1014.12
2023-01-21T00:23:03.931Z,1014.15
2023-01-21T00:24:04.135Z,1014.19
2023-01-21T00:25:04.214Z,1014.20
2023-01-21T00:26:04.430Z,1014.21
2023-01-21T00:27:03.537Z,1014.23
2023-01-21T00:28:03.917Z,1014.26
2023-01-21T00:29:03.947Z,1014.24
2023-01-21T00:30:03.907Z,1014.27
2023-01-21T00:31:03.964Z,1014.27
2023-01-21T00:32:03.048Z,1014.31
2023-01-21T00:33:03.661Z,1014.36
2023-01-21T00:34:03.714Z,1014.36
2023-01-21T00:35:03.826Z,1014.43
2023-01-21T00:36:03.264Z,1014.43
2023-01-21T00:37:03.679Z,1014.43
2023-01-21T00:38:03.739Z,1014.45
2023-01-21T00:39:03.781Z,1014.43
2023-01-21T00:40:03.771Z,1014.45
2023-01-21T00:41:03.268Z,1014.49
2023-01-21T00:42:03.459Z,1014.47
2023-01-21T00:43:03.649Z,1014.47
2023-01-21T00:44:03.716Z,1014.51
2023-01-21T00:45:03.603Z,1014.50
2023-01-21T00:46:03.880Z,1014.52
2023-01-21T00:47:03.187Z,1014.51
2023-01-21T00:48:03.244Z,1014.52
2023-01-21T00:49:02.958Z,1014.55
2023-01-21T00:50:03.475Z,1014.51
2023-01-21T00:51:02.948Z,1014.50
2023-01-21T00:52:03.151Z,1014.51
2023-01-21T00:53:03.133Z,1014.50
2023-01-21T00:54:03.152Z,1014.56
2023-01-21T00:55:03.049Z,1014.56
2023-01-21T00:56:03.320Z,1014.57
2023-01-21T00:57:03.700Z,1014.58
2023-01-21T00:58:03.515Z,1014.60
2023-01-21T00:59:03.570Z,1014.62
2023-01-21T01:00:03.566Z,1014.67
2023-01-21T01:01:03.714Z,1014.60
2023-01-21T01:02:05.191Z,1014.66
2023-01-21T01:03:05.216Z,1014.68
2023-01-21T01:04:04.830Z,1014.73
2023-01-21T01:05:04.852Z,1014.76
2023-01-21T01:06:04.729Z,1014.74
2023-01-21T01:07:04.808Z,1014.80
2023-01-21T01:08:04.889Z,1014.81
2023-01-21T01:09:05.006Z,1014.81
2023-01-21T01:10:05.160Z,1014.82
2023-01-21T01:11:04.855Z,1014.83
2023-01-21T01:12:04.010Z,1014.86
2023-01-21T01:13:04.003Z,1014.84
2023-01-21T01:14:04.122Z,1014.86
2023-01-21T01:15:04.144Z,1014.85
2023-01-21T01:16:04.501Z,1014.87
2023-01-21T01:17:05.037Z,1014.88
2023-01-21T01:18:04.550Z,1014.88
2023-01-21T01:19:04.657Z,1014.93
2023-01-21T01:20:04.513Z,1014.99
2023-01-21T01:21:04.786Z,1015.03
2023-01-21T01:22:03.912Z,1015.05
2023-01-21T01:23:04.044Z,1015.11
2023-01-21T01:24:03.986Z,1015.13
2023-01-21T01:25:04.032Z,1015.16
2023-01-21T01:26:04.058Z,1015.15
2023-01-21T01:27:04.075Z,1015.16
2023-01-21T01:28:03.901Z,1015.17
2023-01-21T01:29:04.196Z,1015.16
2023-01-21T01:30:04.405Z,1015.20
2023-01-21T01:31:04.727Z,1015.15
2023-01-21T01:32:04.290Z,1015.17
2023-01-21T01:33:04.352Z,1015.21
2023-01-21T01:34:03.903Z,1015.26
2023-01-21T01:35:04.171Z,1015.34
2023-01-21T01:36:04.021Z,1015.38
2023-01-21T01:37:03.881Z,1015.38
2023-01-21T01:38:03.748Z,1015.41
2023-01-21T01:39:03.954Z,1015.41
2023-01-21T01:40:04.020Z,1015.45
2023-01-21T01:41:04.034Z,1015.50
2023-01-21T01:42:04.432Z,1015.48
2023-01-21T01:43:04.094Z,1015.50
2023-01-21T01:44:04.380Z,1015.54
2023-01-21T01:45:04.411Z,1015.58
2023-01-21T01:46:04.008Z,1015.56
2023-01-21T01:47:04.089Z,1015.60
2023-01-21T01:48:04.006Z,1015.63
2023-01-21T01:49:04.027Z,1015.65
2023-01-21T01:50:04.065Z,1015.66
2023-01-21T01:51:04.128Z,1015.67
2023-01-21T01:52:03.963Z,1015.66
2023-01-21T01:53:04.159Z,1015.71
2023-01-21T01:54:04.192Z,1015.73
2023-01-21T01:55:04.217Z,1015.74
2023-01-21T01:56:04.222Z,1015.76
2023-01-21T01:57:04.341Z,1015.74
2023-01-21T01:58:04.502Z,1015.75
2023-01-21T01:59:04.173Z,1015.75
2023-01-21T02:00:04.164Z,1015.77
2023-01-21T02:01:04.319Z,1015.79
2023-01-21T02:02:04.266Z,1015.79
2023-01-21T02:03:04.221Z,1015.77
2023-01-21T02:04:04.210Z,1015.78
2023-01-21T02:05:03.578Z,1015.80
2023-01-21T02:06:04.108Z,1015.79
2023-01-21T02:07:04.489Z,1015.76
2023-01-21T02:08:04.076Z,1015.82
2023-01-21T02:09:04.289Z,1015.86
2023-01-21T02:10:04.148Z,1015.84
2023-01-21T02:11:04.199Z,1015.88
2023-01-21T02:12:04.196Z,1015.91
2023-01-21T02:13:04.216Z,1015.90
2023-01-21T02:14:04.118Z,1015.91
2023-01-21T02:15:04.324Z,1015.89
2023-01-21T02:16:04.416Z,1015.93
2023-01-21T02:17:04.498Z,1015.91
2023-01-21T02:18:04.450Z,1015.92
2023-01-21T02:19:04.501Z,1015.88
2023-01-21T02:20:04.525Z,1015.88
2023-01-21T02:21:04.535Z,1015.90
2023-01-21T02:22:04.121Z,1015.91
2023-01-21T02:23:04.168Z,1015.93
2023-01-21T02:24:04.076Z,1015.91
2023-01-21T02:25:04.036Z,1015.94
2023-01-21T02:26:04.035Z,1015.94
2023-01-21T02:27:04.784Z,1015.96
2023-01-21T02:28:04.170Z,1016.00
2023-01-21T02:29:04.532Z,1015.98
2023-01-21T02:30:04.537Z,1016.03
2023-01-21T02:31:04.790Z,1016.06
2023-01-21T02:32:03.666Z,1016.11
2023-01-21T02:33:03.392Z,1016.07
2023-01-21T02:34:03.436Z,1016.13
2023-01-21T02:35:03.797Z,1016.12
2023-01-21T02:36:03.780Z,1016.17
2023-01-21T02:37:03.625Z,1016.24
2023-01-21T02:38:03.720Z,1016.24
2023-01-21T02:39:03.659Z,1016.27
2023-01-21T02:40:03.486Z,1016.28
2023-01-21T02:41:03.757Z,1016.31
2023-01-21T02:42:04.064Z,1016.31
2023-01-21T02:43:03.382Z,1016.34
2023-01-21T02:44:03.663Z,1016.36
2023-01-21T02:45:03.680Z,1016.37
2023-01-21T02:46:03.606Z,1016.37
2023-01-21T02:47:03.949Z,1016.34
2023-01-21T02:48:04.391Z,1016.39
2023-01-21T02:49:04.557Z,1016.40
2023-01-21T02:50:03.952Z,1016.40
2023-01-21T02:51:04.222Z,1016.44
2023-01-21T02:52:03.487Z,1016.43
2023-01-21T02:53:03.852Z,1016.49
2023-01-21T02:54:03.965Z,1016.49
2023-01-21T02:55:03.593Z,1016.47
2023-01-21T02:56:04.020Z,1016.48
2023-01-21T02:57:04.004Z,1016.50
2023-01-21T02:58:03.684Z,1016.51
2023-01-21T02:59:03.580Z,1016.54
2023-01-21T03:00:03.705Z,1016.51
2023-01-21T03:01:04.046Z,1016.55
2023-01-21T03:02:03.953Z,1016.57
2023-01-21T03:03:04.250Z,1016.55
2023-01-21T03:04:03.664Z,1016.55
2023-01-21T03:05:03.926Z,1016.54
2023-01-21T03:06:04.289Z,1016.55
2023-01-21T03:07:04.463Z,1016.57
2023-01-21T03:08:03.983Z,1016.57
2023-01-21T03:09:04.062Z,1016.60
2023-01-21T03:10:04.022Z,1016.64
2023-01-21T03:11:04.193Z,1016.63
2023-01-21T03:12:03.242Z,1016.63
2023-01-21T03:13:03.240Z,1016.64
2023-01-21T03:14:03.201Z,1016.61
2023-01-21T03:15:03.547Z,1016.62
2023-01-21T03:16:03.620Z,1016.64
2023-01-21T03:17:03.548Z,1016.66
2023-01-21T03:18:03.254Z,1016.65
2023-01-21T03:19:03.284Z,1016.70
2023-01-21T03:20:03.313Z,1016.72
2023-01-21T03:21:03.160Z,1016.73
2023-01-21T03:22:03.483Z,1016.75
2023-01-21T03:23:03.542Z,1016.71
2023-01-21T03:24:03.553Z,1016.72
2023-01-21T03:25:03.373Z,1016.73
2023-01-21T03:26:03.952Z,1016.81
2023-01-21T03:27:03.540Z,1016.80
2023-01-21T03:28:03.779Z,1016.77
2023-01-21T03:29:03.746Z,1016.76
2023-01-21T03:30:03.759Z,1016.81
2023-01-21T03:31:03.786Z,1016.79
2023-01-21T03:32:03.346Z,1016.75
2023-01-21T03:33:03.392Z,1016.80
2023-01-21T03:34:03.452Z,1016.82
2023-01-21T03:35:03.035Z,1016.81
2023-01-21T03:36:03.077Z,1016.80
2023-01-21T03:37:03.448Z,1016.81
2023-01-21T03:38:03.590Z,1016.82
2023-01-21T03:39:03.260Z,1016.83
2023-01-21T03:40:03.357Z,1016.86
2023-01-21T03:41:03.204Z,1016.84
2023-01-21T03:42:03.893Z,1016.84
2023-01-21T03:43:03.915Z,1016.85
2023-01-21T03:44:03.511Z,1016.89
2023-01-21T03:45:03.688Z,1016.86
2023-01-21T03:46:03.792Z,1016.87
2023-01-21T03:47:04.021Z,1016.90
2023-01-21T03:48:04.076Z,1016.90
2023-01-21T03:49:03.449Z,1016.89
2023-01-21T03:50:03.728Z,1016.92
2023-01-21T03:51:03.826Z,1016.95
2023-01-21T03:52:03.594Z,1016.98
2023-01-21T03:53:03.582Z,1017.00
2023-01-21T03:54:03.572Z,1016.96
2023-01-21T03:55:02.981Z,1016.98
2023-01-21T03:56:03.275Z,1017.04
2023-01-21T03:57:03.386Z,1016.99
2023-01-21T03:58:03.310Z,1016.97
2023-01-21T03:59:03.617Z,1016.99
2023-01-21T04:00:03.650Z,1016.99
2023-01-21T04:01:03.768Z,1017.06
2023-01-21T04:02:05.247Z,1017.08
2023-01-21T04:03:05.093Z,1017.10
2023-01-21T04:04:05.436Z,1017.13
2023-01-21T04:05:04.800Z,1017.14
2023-01-21T04:06:05.081Z,1017.13
2023-01-21T04:07:04.831Z,1017.08
2023-01-21T04:08:04.653Z,1017.06
2023-01-21T04:09:04.621Z,1017.06
2023-01-21T04:10:04.740Z,1017.09
2023-01-21T04:11:04.652Z,1017.10
2023-01-21T04:12:05.303Z,1017.08
2023-01-21T04:13:05.287Z,1017.09
2023-01-21T04:14:05.248Z,1017.06
2023-01-21T04:15:05.701Z,1017.09
2023-01-21T04:16:05.263Z,1017.10
2023-01-21T04:17:04.260Z,1017.09
2023-01-21T04:18:04.440Z,1017.14
2023-01-21T04:19:04.448Z,1017.12
2023-01-21T04:20:04.396Z,1017.15
2023-01-21T04:21:04.439Z,1017.17
2023-01-21T04:22:04.427Z,1017.16
2023-01-21T04:23:04.771Z,1017.16
2023-01-21T04:24:04.746Z,1017.09
2023-01-21T04:25:04.573Z,1017.09
2023-01-21T04:26:04.437Z,1017.12
2023-01-21T04:27:03.910Z,1017.12
2023-01-21T04:28:03.894Z,1017.13
2023-01-21T04:29:04.157Z,1017.12
2023-01-21T04:30:04.091Z,1017.15
2023-01-21T04:31:04.152Z,1017.15
2023-01-21T04:32:04.700Z,1017.17
2023-01-21T04:33:04.319Z,1017.18
2023-01-21T04:34:04.749Z,1017.17
2023-01-21T04:35:04.123Z,1017.14
2023-01-21T04:36:04.243Z,1017.18
2023-01-21T04:37:04.199Z,1017.21
2023-01-21T04:38:04.501Z,1017.22
2023-01-21T04:39:04.360Z,1017.30
2023-01-21T04:40:04.397Z,1017.27
2023-01-21T04:41:04.770Z,1017.28
2023-01-21T04:42:03.985Z,1017.32
2023-01-21T04:43:04.081Z,1017.31
2023-01-21T04:44:04.259Z,1017.35
2023-01-21T04:45:03.751Z,1017.33
2023-01-21T04:46:03.920Z,1017.34
2023-01-21T04:47:04.005Z,1017.37
2023-01-21T04:48:04.333Z,1017.37
2023-01-21T04:49:04.339Z,1017.44
2023-01-21T04:50:04.326Z,1017.46
2023-01-21T04:51:03.961Z,1017.45
2023-01-21T04:52:04.165Z,1017.43
2023-01-21T04:53:04.115Z,1017.45
2023-01-21T04:54:04.404Z,1017.46
2023-01-21T04:55:04.350Z,1017.48
2023-01-21T04:56:04.054Z,1017.45
2023-01-21T04:57:04.474Z,1017.47
2023-01-21T04:58:04.221Z,1017.44
2023-01-21T04:59:04.294Z,1017.49
2023-01-21T05:00:04.329Z,1017.47
2023-01-21T05:01:04.155Z,1017.52
2023-01-21T05:02:04.089Z,1017.53
2023-01-21T05:03:04.015Z,1017.60
2023-01-21T05:04:04.531Z,1017.62
2023-01-21T05:05:04.443Z,1017.65
2023-01-21T05:06:04.364Z,1017.64
2023-01-21T05:07:04.385Z,1017.62
2023-01-21T05:08:04.915Z,1017.63
2023-01-21T05:09:04.894Z,1017.65
2023-01-21T05:10:04.705Z,1017.69
2023-01-21T05:11:04.702Z,1017.71
2023-01-21T05:12:03.733Z,1017.72
2023-01-21T05:13:04.071Z,1017.71
2023-01-21T05:14:04.091Z,1017.75
2023-01-21T05:15:04.093Z,1017.74
2023-01-21T05:16:04.175Z,1017.75
2023-01-21T05:17:04.376Z,1017.82
2023-01-21T05:18:04.641Z,1017.84
2023-01-21T05:19:03.967Z,1017.87
2023-01-21T05:20:04.610Z,1017.82
2023-01-21T05:21:04.533Z,1017.84
2023-01-21T05:22:03.600Z,1017.85
2023-01-21T05:23:03.573Z,1017.85
2023-01-21T05:24:03.576Z,1017.93
2023-01-21T05:25:03.388Z,1017.91
2023-01-21T05:26:03.693Z,1017.90
2023-01-21T05:27:03.726Z,1017.91
2023-01-21T05:28:03.759Z,1017.91
2023-01-21T05:29:03.473Z,1017.93
2023-01-21T05:30:03.622Z,1018.01
2023-01-21T05:31:03.802Z,1017.97
2023-01-21T05:32:03.750Z,1017.99
2023-01-21T05:33:03.829Z,1017.99
2023-01-21T05:34:03.869Z,1018.00
2023-01-21T05:35:03.792Z,1018.01
2023-01-21T05:36:03.854Z,1018.08
2023-01-21T05:37:03.842Z,1018.09
2023-01-21T05:38:03.653Z,1018.09
2023-01-21T05:39:03.886Z,1018.13
2023-01-21T05:40:03.575Z,1018.12
2023-01-21T05:41:03.874Z,1018.14
2023-01-21T05:42:03.875Z,1018.14
2023-01-21T05:43:03.904Z,1018.16
2023-01-21T05:44:03.887Z,1018.19
2023-01-21T05:45:04.245Z,1018.22
2023-01-21T05:46:03.620Z,1018.20
2023-01-21T05:47:03.878Z,1018.21
2023-01-21T05:48:03.727Z,1018.18
2023-01-21T05:49:03.749Z,1018.20
2023-01-21T05:50:03.965Z,1018.23
2023-01-21T05:51:04.189Z,1018.23
2023-01-21T05:52:04.378Z,1018.26
2023-01-21T05:53:04.382Z,1018.25
2023-01-21T05:54:04.312Z,1018.29
2023-01-21T05:55:04.069Z,1018.26
2023-01-21T05:56:04.592Z,1018.29
2023-01-21T05:57:03.656Z,1018.33
2023-01-21T05:58:03.633Z,1018.31
2023-01-21T05:59:03.663Z,1018.33
2023-01-21T06:00:03.648Z,1018.30
2023-01-21T06:01:03.424Z,1018.35
2023-01-21T06:02:04.351Z,1018.38
2023-01-21T06:03:04.312Z,1018.37
2023-01-21T06:04:04.368Z,1018.34
2023-01-21T06:05:04.446Z,1018.41
2023-01-21T06:06:04.487Z,1018.39
2023-01-21T06:07:04.514Z,1018.41
2023-01-21T06:08:04.599Z,1018.41
2023-01-21T06:09:04.345Z,1018.46
2023-01-21T06:10:04.604Z,1018.41
2023-01-21T06:11:04.357Z,1018.41
2023-01-21T06:12:04.166Z,1018.49
2023-01-21T06:13:04.226Z,1018.45
2023-01-21T06:14:04.524Z,1018.46
2023-01-21T06:15:04.414Z,1018.49
2023-01-21T06:16:04.094Z,1018.45
2023-01-21T06:17:04.214Z,1018.48
2023-01-21T06:18:04.276Z,1018.50
2023-01-21T06:19:03.820Z,1018.47
2023-01-21T06:20:04.121Z,1018.49
2023-01-21T06:21:04.344Z,1018.52
2023-01-21T06:22:04.357Z,1018.54
2023-01-21T06:23:04.117Z,1018.57
2023-01-21T06:24:04.133Z,1018.58
2023-01-21T06:25:04.583Z,1018.63
2023-01-21T06:26:04.610Z,1018.64
2023-01-21T06:27:04.127Z,1018.66
2023-01-21T06:28:04.550Z,1018.66
2023-01-21T06:29:03.587Z,1018.65
2023-01-21T06:30:03.553Z,1018.67
2023-01-21T06:31:03.889Z,1018.67
2023-01-21T06:32:04.414Z,1018.70
2023-01-21T06:33:03.536Z,1018.71
2023-01-21T06:34:03.682Z,1018.69
2023-01-21T06:35:03.998Z,1018.73
2023-01-21T06:36:04.034Z,1018.78
2023-01-21T06:37:04.119Z,1018.78
2023-01-21T06:38:04.191Z,1018.82
2023-01-21T06:39:04.233Z,1018.81
2023-01-21T06:40:04.115Z,1018.87
2023-01-21T06:41:04.142Z,1018.90
2023-01-21T06:42:04.209Z,1018.91
2023-01-21T06:43:04.325Z,1018.94
2023-01-21T06:44:04.345Z,1018.95
2023-01-21T06:45:04.404Z,1018.95
2023-01-21T06:46:04.441Z,1018.94
2023-01-21T06:47:04.570Z,1018.97
2023-01-21T06:48:04.647Z,1018.98
2023-01-21T06:49:04.163Z,1018.99
2023-01-21T06:50:04.586Z,1019.03
2023-01-21T06:51:04.747Z,1019.01
2023-01-21T06:52:04.523Z,1019.05
2023-01-21T06:53:04.597Z,1019.14
2023-01-21T06:54:04.592Z,1019.12
2023-01-21T06:55:04.601Z,1019.14
2023-01-21T06:56:04.852Z,1019.16
2023-01-21T06:57:03.913Z,1019.19
2023-01-21T06:58:03.600Z,1019.21
2023-01-21T06:59:03.886Z,1019.20
2023-01-21T07:00:03.836Z,1019.21
2023-01-21T07:01:03.619Z,1019.21
2023-01-21T07:02:04.327Z,1019.20
2023-01-21T07:03:04.371Z,1019.18
2023-01-21T07:04:04.391Z,1019.23
2023-01-21T07:05:04.557Z,1019.24
2023-01-21T07:06:03.998Z,1019.21
2023-01-21T07:07:03.601Z,1019.24
2023-01-21T07:08:03.851Z,1019.26
2023-01-21T07:09:03.621Z,1019.27
2023-01-21T07:10:03.838Z,1019.26
2023-01-21T07:11:03.771Z,1019.25
2023-01-21T07:12:03.606Z,1019.29
2023-01-21T07:13:03.661Z,1019.29
2023-01-21T07:14:03.673Z,1019.26
2023-01-21T07:15:03.365Z,1019.31
2023-01-21T07:16:06.015Z,1019.34
2023-01-21T07:17:03.809Z,1019.33
2023-01-21T07:18:03.918Z,1019.35
2023-01-21T07:19:04.040Z,1019.33
2023-01-21T07:20:04.137Z,1019.31
2023-01-21T07:21:03.551Z,1019.33
2023-01-21T07:22:03.995Z,1019.31
2023-01-21T07:23:04.278Z,1019.35
2023-01-21T07:24:04.333Z,1019.36
2023-01-21T07:25:03.765Z,1019.38
2023-01-21T07:26:04.183Z,1019.41
2023-01-21T07:27:03.989Z,1019.39
2023-01-21T07:28:03.678Z,1019.41
2023-01-21T07:29:04.000Z,1019.43
2023-01-21T07:30:03.434Z,1019.42
2023-01-21T07:31:03.915Z,1019.44
2023-01-21T07:32:03.776Z,1019.50
2023-01-21T07:33:03.953Z,1019.47
2023-01-21T07:34:03.879Z,1019.46
2023-01-21T07:35:04.040Z,1019.48
2023-01-21T07:36:03.497Z,1019.47
2023-01-21T07:37:02.731Z,1019.44
2023-01-21T07:38:03.142Z,1019.48
2023-01-21T07:39:03.193Z,1019.48
2023-01-21T07:40:02.884Z,1019.50
2023-01-21T07:41:03.097Z,1019.58
2023-01-21T07:42:02.834Z,1019.56
2023-01-21T07:43:03.234Z,1019.59
2023-01-21T07:44:03.347Z,1019.66
2023-01-21T07:45:03.383Z,1019.64
2023-01-21T07:46:03.073Z,1019.68
2023-01-21T07:47:03.197Z,1019.67
2023-01-21T07:48:03.667Z,1019.70
2023-01-21T07:49:03.815Z,1019.67
2023-01-21T07:50:03.816Z,1019.68
2023-01-21T07:51:03.306Z,1019.71
2023-01-21T07:52:03.474Z,1019.69
2023-01-21T07:53:03.857Z,1019.70
2023-01-21T07:54:03.911Z,1019.71
2023-01-21T07:55:03.704Z,1019.71
2023-01-21T07:56:03.660Z,1019.72
2023-01-21T07:57:03.507Z,1019.72
2023-01-21T07:58:03.805Z,1019.71
2023-01-21T07:59:03.956Z,1019.71
2023-01-21T08:00:03.581Z,1019.72
2023-01-21T08:01:03.396Z,1019.68
2023-01-21T08:02:03.552Z,1019.71
2023-01-21T08:03:03.154Z,1019.69
2023-01-21T08:04:03.160Z,1019.68
2023-01-21T08:05:03.269Z,1019.73
2023-01-21T08:06:03.369Z,1019.66
2023-01-21T08:07:02.612Z,1019.68
2023-01-21T08:08:02.921Z,1019.68
2023-01-21T08:09:02.552Z,1019.73
2023-01-21T08:10:02.921Z,1019.71
2023-01-21T08:11:02.434Z,1019.73
2023-01-21T08:12:02.709Z,1019.75
2023-01-21T08:13:02.887Z,1019.79
2023-01-21T08:14:03.002Z,1019.80
2023-01-21T08:15:03.151Z,1019.82
2023-01-21T08:16:02.698Z,1019.83
2023-01-21T08:17:02.978Z,1019.82
2023-01-21T08:18:03.296Z,1019.86
2023-01-21T08:19:03.185Z,1019.85
2023-01-21T08:20:03.352Z,1019.86
2023-01-21T08:21:03.460Z,1019.87
2023-01-21T08:22:02.921Z,1019.90
2023-01-21T08:23:03.229Z,1019.90
2023-01-21T08:24:02.984Z,1019.90
2023-01-21T08:25:03.176Z,1019.90
2023-01-21T08:26:03.341Z,1019.92
2023-01-21T08:27:02.441Z,1019.93
2023-01-21T08:28:02.617Z,1019.96
2023-01-21T08:29:02.787Z,1019.98
2023-01-21T08:30:02.220Z,1020.00
2023-01-21T08:31:02.890Z,1020.02
2023-01-21T08:32:02.629Z,1020.04
2023-01-21T08:33:03.222Z,1020.01
2023-01-21T08:34:02.865Z,1020.00
2023-01-21T08:35:03.003Z,1020.02
2023-01-21T08:36:02.700Z,1020.02
2023-01-21T08:37:02.888Z,1020.13
2023-01-21T08:38:03.031Z,1020.11
2023-01-21T08:39:02.865Z,1020.08
2023-01-21T08:40:02.946Z,1020.15
2023-01-21T08:41:03.144Z,1020.15
2023-01-21T08:42:02.354Z,1020.17
2023-01-21T08:43:02.343Z,1020.15
2023-01-21T08:44:02.608Z,1020.15
2023-01-21T08:45:02.762Z,1020.14
2023-01-21T08:46:02.219Z,1020.16
2023-01-21T08:47:03.159Z,1020.20
2023-01-21T08:48:03.395Z,1020.19
2023-01-21T08:49:02.836Z,1020.24
2023-01-21T08:50:03.129Z,1020.25
2023-01-21T08:51:02.875Z,1020.22
2023-01-21T08:52:03.054Z,1020.22
2023-01-21T08:53:02.777Z,1020.27
2023-01-21T08:54:02.958Z,1020.26
2023-01-21T08:55:02.443Z,1020.26
2023-01-21T08:56:02.447Z,1020.30
2023-01-21T08:57:02.394Z,1020.32
2023-01-21T08:58:02.578Z,1020.33
2023-01-21T08:59:02.489Z,1020.34
2023-01-21T09:00:02.442Z,1020.39
2023-01-21T09:01:02.097Z,1020.42
2023-01-21T09:02:04.552Z,1020.42
2023-01-21T09:03:04.795Z,1020.42
2023-01-21T09:04:04.827Z,1020.46
2023-01-21T09:05:04.346Z,1020.46
2023-01-21T09:06:04.532Z,1020.42
2023-01-21T09:07:04.174Z,1020.42
2023-01-21T09:08:03.995Z,1020.47
2023-01-21T09:09:04.292Z,1020.45
2023-01-21T09:10:04.126Z,1020.47
2023-01-21T09:11:04.334Z,1020.49
2023-01-21T09:12:04.424Z,1020.47
2023-01-21T09:13:04.227Z,1020.47
2023-01-21T09:14:04.430Z,1020.48
2023-01-21T09:15:04.566Z,1020.49
2023-01-21T09:16:04.105Z,1020.47
2023-01-21T09:17:04.376Z,1020.46
2023-01-21T09:18:04.088Z,1020.45
2023-01-21T09:19:04.293Z,1020.51
2023-01-21T09:20:04.667Z,1020.48
2023-01-21T09:21:04.081Z,1020.52
2023-01-21T09:22:03.967Z,1020.50
2023-01-21T09:23:04.123Z,1020.53
2023-01-21T09:24:03.877Z,1020.49
2023-01-21T09:25:04.027Z,1020.53
2023-01-21T09:26:03.678Z,1020.60
2023-01-21T09:27:04.218Z,1020.59
2023-01-21T09:28:04.014Z,1020.58
2023-01-21T09:29:04.177Z,1020.63
2023-01-21T09:30:04.098Z,1020.58
2023-01-21T09:31:04.449Z,1020.55
2023-01-21T09:32:04.563Z,1020.60
2023-01-21T09:33:04.769Z,1020.62
2023-01-21T09:34:04.127Z,1020.64
2023-01-21T09:35:04.196Z,1020.67
2023-01-21T09:36:04.411Z,1020.63
2023-01-21T09:37:03.974Z,1020.63
2023-01-21T09:38:04.176Z,1020.60
2023-01-21T09:39:03.688Z,1020.59
2023-01-21T09:40:03.709Z,1020.62
2023-01-21T09:41:04.014Z,1020.68
2023-01-21T09:42:04.204Z,1020.65
2023-01-21T09:43:04.012Z,1020.69
2023-01-21T09:44:03.891Z,1020.64
2023-01-21T09:45:04.080Z,1020.72
2023-01-21T09:46:04.314Z,1020.76
2023-01-21T09:47:04.693Z,1020.76
2023-01-21T09:48:04.674Z,1020.75
2023-01-21T09:49:04.135Z,1020.75
2023-01-21T09:50:04.610Z,1020.78
2023-01-21T09:51:04.183Z,1020.80
2023-01-21T09:52:03.606Z,1020.83
2023-01-21T09:53:03.439Z,1020.79
2023-01-21T09:54:03.317Z,1020.85
2023-01-21T09:55:03.567Z,1020.82
2023-01-21T09:56:03.256Z,1020.82
2023-01-21T09:57:04.202Z,1020.82
2023-01-21T09:58:04.039Z,1020.84
2023-01-21T09:59:04.207Z,1020.84
2023-01-21T10:00:03.724Z,1020.85
2023-01-21T10:01:04.090Z,1020.88
2023-01-21T10:02:04.862Z,1020.89
2023-01-21T10:03:04.249Z,1020.95
2023-01-21T10:04:04.443Z,1020.92
2023-01-21T10:05:03.911Z,1020.93
2023-01-21T10:06:04.335Z,1020.90
2023-01-21T10:07:03.537Z,1020.92
2023-01-21T10:08:03.032Z,1020.96
2023-01-21T10:09:03.430Z,1020.92
2023-01-21T10:10:03.140Z,1020.92
2023-01-21T10:11:03.258Z,1020.94
2023-01-21T10:12:04.044Z,1020.91
2023-01-21T10:13:04.075Z,1020.92
2023-01-21T10:14:03.750Z,1020.92
2023-01-21T10:15:04.111Z,1020.92
2023-01-21T10:16:03.531Z,1020.92
2023-01-21T10:17:03.672Z,1020.95
2023-01-21T10:18:03.750Z,1020.95
2023-01-21T10:19:03.283Z,1020.94
2023-01-21T10:20:03.362Z,1020.94
2023-01-21T10:21:03.665Z,1020.95
2023-01-21T10:22:03.770Z,1020.95
2023-01-21T10:23:03.408Z,1020.97
2023-01-21T10:24:03.733Z,1021.01
2023-01-21T10:25:03.473Z,1020.99
2023-01-21T10:26:03.636Z,1020.99
2023-01-21T10:27:03.765Z,1021.02
2023-01-21T10:28:03.613Z,1021.00
2023-01-21T10:29:03.820Z,1020.99
2023-01-21T10:30:03.337Z,1020.96
2023-01-21T10:31:03.358Z,1021.01
2023-01-21T10:32:03.831Z,1021.01
2023-01-21T10:33:03.589Z,1020.99
2023-01-21T10:34:03.290Z,1020.99
2023-01-21T10:35:03.987Z,1020.97
2023-01-21T10:36:03.472Z,1020.98
2023-01-21T10:37:03.868Z,1021.01
2023-01-21T10:38:03.639Z,1021.02
2023-01-21T10:39:03.293Z,1021.02
2023-01-21T10:40:03.468Z,1021.05
2023-01-21T10:41:03.409Z,1021.01
2023-01-21T10:42:03.345Z,1021.00
2023-01-21T10:43:03.429Z,1021.01
2023-01-21T10:44:02.936Z,1021.01
2023-01-21T10:45:03.203Z,1021.05
2023-01-21T10:46:03.470Z,1021.05
2023-01-21T10:47:03.805Z,1021.03
2023-01-21T10:48:03.933Z,1021.10
2023-01-21T10:49:03.537Z,1021.08
2023-01-21T10:50:03.635Z,1021.04
2023-01-21T10:51:03.491Z,1021.07
2023-01-21T10:52:02.934Z,1021.09
2023-01-21T10:53:03.605Z,1021.11
2023-01-21T10:54:03.060Z,1021.09
2023-01-21T10:55:03.577Z,1021.10
2023-01-21T10:56:03.392Z,1021.12
2023-01-21T10:57:03.138Z,1021.15
2023-01-21T10:58:03.523Z,1021.16
2023-01-21T10:59:03.492Z,1021.12
2023-01-21T11:00:03.602Z,1021.11
2023-01-21T11:01:03.853Z,1021.11
2023-01-21T11:02:04.701Z,1021.10
2023-01-21T11:03:04.689Z,1021.13
2023-01-21T11:04:04.352Z,1021.16
2023-01-21T11:05:04.886Z,1021.14
2023-01-21T11:06:04.515Z,1021.15
2023-01-21T11:07:04.815Z,1021.18
2023-01-21T11:08:05.245Z,1021.16
2023-01-21T11:09:05.434Z,1021.16
2023-01-21T11:10:05.360Z,1021.16
2023-01-21T11:11:05.304Z,1021.14
2023-01-21T11:12:04.442Z,1021.15
2023-01-21T11:13:03.835Z,1021.15
2023-01-21T11:14:03.759Z,1021.15
2023-01-21T11:15:04.026Z,1021.12
2023-01-21T11:16:03.947Z,1021.13
2023-01-21T11:17:04.052Z,1021.07
2023-01-21T11:18:04.637Z,1021.11
2023-01-21T11:19:04.686Z,1021.14
2023-01-21T11:20:04.099Z,1021.15
2023-01-21T11:21:03.996Z,1021.13
2023-01-21T11:22:04.963Z,1021.14
2023-01-21T11:23:04.995Z,1021.09
2023-01-21T11:24:04.795Z,1021.08
2023-01-21T11:25:04.638Z,1021.10
2023-01-21T11:26:05.211Z,1021.14
2023-01-21T11:27:04.018Z,1021.11
2023-01-21T11:28:04.560Z,1021.10
2023-01-21T11:29:06.773Z,1021.09
2023-01-21T11:30:08.070Z,1021.11
2023-01-21T11:31:04.119Z,1021.16
2023-01-21T11:32:04.352Z,1021.11
2023-01-21T11:33:04.670Z,1021.09
2023-01-21T11:34:04.163Z,1021.13
2023-01-21T11:35:04.705Z,1021.07
2023-01-21T11:36:04.745Z,1021.08
2023-01-21T11:37:04.267Z,1021.07
2023-01-21T11:38:04.615Z,1021.07
2023-01-21T11:39:04.779Z,1021.05
2023-01-21T11:40:04.387Z,1021.05
2023-01-21T11:41:04.753Z,1021.05
2023-01-21T11:42:04.542Z,1021.00
2023-01-21T11:43:04.670Z,1021.01
2023-01-21T11:44:04.779Z,1020.98
2023-01-21T11:45:04.335Z,1020.99
2023-01-21T11:46:04.859Z,1020.99
2023-01-21T11:47:03.789Z,1020.96
2023-01-21T11:48:04.185Z,1020.96
2023-01-21T11:49:04.298Z,1020.95
2023-01-21T11:50:04.077Z,1020.93
2023-01-21T11:51:04.205Z,1020.91
2023-01-21T11:52:04.116Z,1020.90
2023-01-21T11:53:04.434Z,1020.86
2023-01-21T11:54:04.402Z,1020.85
2023-01-21T11:55:03.951Z,1020.86
2023-01-21T11:56:03.992Z,1020.86
2023-01-21T11:57:04.193Z,1020.84
2023-01-21T11:58:04.660Z,1020.83
2023-01-21T11:59:04.160Z,1020.86
2023-01-21T12:00:04.331Z,1020.86
2023-01-21T12:01:04.378Z,1020.83
2023-01-21T12:02:04.413Z,1020.78
2023-01-21T12:03:04.534Z,1020.81
2023-01-21T12:04:04.337Z,1020.80
2023-01-21T12:05:04.542Z,1020.78